createdAt,value
2019-01-29T00:00:03.317Z,22.6
2019-01-29T00:05:02.857Z,22.6
2019-01-29T00:10:02.360Z,22.6
2019-01-29T00:15:03.100Z,22.5
2019-01-29T00:20:02.932Z,22.5
2019-01-29T00:25:02.444Z,22.5
2019-01-29T00:30:03.969Z,22.5
2019-01-29T00:35:02.927Z,22.5
2019-01-29T00:40:02.582Z,22.5
2019-01-29T00:45:03.482Z,22.5
2019-01-29T00:50:03.657Z,22.5
2019-01-29T00:55:03.412Z,22.4
2019-01-29T01:00:03.897Z,22.4
2019-01-29T01:05:02.452Z,22.4
2019-01-29T01:10:03.106Z,22.4
2019-01-29T01:15:02.766Z,22.4
2019-01-29T01:20:03.292Z,22.4
2019-01-29T01:25:02.989Z,22.3
2019-01-29T01:30:03.189Z,22.3
2019-01-29T01:35:02.839Z,22.3
2019-01-29T01:40:03.422Z,22.3
2019-01-29T01:45:03.866Z,22.3
2019-01-29T01:50:02.708Z,22.3
2019-01-29T01:55:03.213Z,22.3
2019-01-29T02:00:03.983Z,22.3
2019-01-29T02:05:03.034Z,22.3
2019-01-29T02:10:02.528Z,22.3
2019-01-29T02:15:03.393Z,22.3
2019-01-29T02:20:02.983Z,22.3
2019-01-29T02:25:02.831Z,22.3
2019-01-29T02:30:03.943Z,22.3
2019-01-29T02:35:02.640Z,22.3
2019-01-29T02:40:03.414Z,22.3
2019-01-29T02:45:03.009Z,22.3
2019-01-29T02:50:02.846Z,22.3
2019-01-29T02:55:02.521Z,22.2
2019-01-29T03:00:04.096Z,22.2
2019-01-29T03:05:02.636Z,22.2
2019-01-29T03:10:03.268Z,22.2
2019-01-29T03:15:02.897Z,22.2
2019-01-29T03:20:02.501Z,22.2
2019-01-29T03:25:03.245Z,22.2
2019-01-29T03:30:02.937Z,22.2
2019-01-29T03:35:02.532Z,22.2
2019-01-29T03:40:03.193Z,22.2
2019-01-29T03:45:03.214Z,22.2
2019-01-29T03:50:03.108Z,22.2
2019-01-29T03:55:02.730Z,22.2
2019-01-29T04:00:04.748Z,22.2
2019-01-29T04:05:03.260Z,22.2
2019-01-29T04:10:02.802Z,22.2
2019-01-29T04:15:03.388Z,22.2
2019-01-29T04:20:02.985Z,22.2
2019-01-29T04:25:02.956Z,22.2
2019-01-29T04:30:03.154Z,22.2
2019-01-29T04:35:02.622Z,22.2
2019-01-29T04:40:03.406Z,22.2
2019-01-29T04:45:03.217Z,22.2
2019-01-29T04:50:03.213Z,22.2
2019-01-29T04:55:03.174Z,22.2
2019-01-29T05:00:03.371Z,22.2
2019-01-29T05:05:02.814Z,22.2
2019-01-29T05:10:03.494Z,22.2
2019-01-29T05:15:03.402Z,22.2
2019-01-29T05:20:02.969Z,22.2
2019-01-29T05:25:02.914Z,22.2
2019-01-29T05:30:03.514Z,22.2
2019-01-29T05:35:03.157Z,22.2
2019-01-29T05:40:03.211Z,22.2
2019-01-29T05:45:03.899Z,22.2
2019-01-29T05:50:03.130Z,22.2
2019-01-29T05:55:02.814Z,22.2
2019-01-29T06:00:05.318Z,22.3
2019-01-29T06:05:03.062Z,22.3
2019-01-29T06:10:03.416Z,22.3
2019-01-29T06:15:03.628Z,22.3
2019-01-29T06:20:03.448Z,22.3
2019-01-29T06:25:03.423Z,22.3
2019-01-29T06:30:04.585Z,22.3
2019-01-29T06:35:02.501Z,22.3
2019-01-29T06:40:04.160Z,22.3
2019-01-29T06:45:03.899Z,22.3
2019-01-29T06:50:03.445Z,22.4
2019-01-29T06:55:03.156Z,22.4
2019-01-29T07:00:04.468Z,22.5
2019-01-29T07:05:03.608Z,22.5
2019-01-29T07:10:03.961Z,22.6
2019-01-29T07:15:03.509Z,22.6
2019-01-29T07:20:03.306Z,22.6
2019-01-29T07:25:03.138Z,22.6
2019-01-29T07:30:04.280Z,22.7
2019-01-29T07:35:02.763Z,22.7
2019-01-29T07:40:03.667Z,22.8
2019-01-29T07:45:04.350Z,22.8
2019-01-29T07:50:03.453Z,22.9
2019-01-29T07:55:03.222Z,22.9
2019-01-29T08:00:05.410Z,23
2019-01-29T08:05:03.395Z,23
2019-01-29T08:10:03.374Z,23
2019-01-29T08:15:03.463Z,23
2019-01-29T08:20:03.132Z,23
2019-01-29T08:25:02.940Z,23
2019-01-29T08:30:04.635Z,23
2019-01-29T08:35:03.684Z,23
2019-01-29T08:40:03.767Z,23
2019-01-29T08:45:04.615Z,23
2019-01-29T08:50:03.757Z,23
2019-01-29T08:55:10.435Z,23
2019-01-29T09:00:03.819Z,23
2019-01-29T09:05:03.550Z,23
2019-01-29T09:10:03.562Z,23
2019-01-29T09:15:03.536Z,23
2019-01-29T09:20:03.730Z,23
2019-01-29T09:25:03.574Z,23
2019-01-29T09:30:04.808Z,23
2019-01-29T09:35:03.691Z,23
2019-01-29T09:40:04.697Z,23
2019-01-29T09:45:04.770Z,23
2019-01-29T09:50:04.288Z,23
2019-01-29T09:55:03.545Z,23
2019-01-29T10:00:04.565Z,23
2019-01-29T10:05:03.817Z,23
2019-01-29T10:10:03.524Z,23
2019-01-29T10:15:03.687Z,23
2019-01-29T10:20:03.468Z,23
2019-01-29T10:25:03.094Z,23
2019-01-29T10:30:04.824Z,23
2019-01-29T10:35:03.451Z,23
2019-01-29T10:40:03.198Z,23
2019-01-29T10:45:03.389Z,23
2019-01-29T10:50:03.860Z,23
2019-01-29T10:55:02.902Z,23
2019-01-29T11:00:04.051Z,23
2019-01-29T11:05:02.766Z,23
2019-01-29T11:10:03.595Z,23
2019-01-29T11:15:03.480Z,23
2019-01-29T11:20:03.203Z,23
2019-01-29T11:25:02.779Z,23
2019-01-29T11:30:04.496Z,23
2019-01-29T11:35:03.535Z,23
2019-01-29T11:40:03.453Z,23
2019-01-29T11:45:03.945Z,23
2019-01-29T11:50:02.893Z,23
2019-01-29T11:55:02.733Z,23
